createdAt,value
2023-05-21T00:00:49.198Z,101522.00
2023-05-21T00:03:15.874Z,101526.19
2023-05-21T00:05:44.185Z,101514.50
2023-05-21T00:08:11.032Z,101516.34
2023-05-21T00:10:37.591Z,101511.47
2023-05-21T00:13:05.170Z,101512.00
2023-05-21T00:15:31.722Z,101501.63
2023-05-21T00:17:58.259Z,101506.28
2023-05-21T00:20:24.952Z,101507.47
2023-05-21T00:22:52.840Z,101502.13
2023-05-21T00:25:19.389Z,101494.28
2023-05-21T00:27:46.033Z,101491.09
2023-05-21T00:30:12.696Z,101495.91
2023-05-21T00:32:39.351Z,101488.09
2023-05-21T00:35:07.207Z,101493.25
2023-05-21T00:37:33.785Z,101489.41
2023-05-21T00:40:01.971Z,101483.53
2023-05-21T00:42:28.557Z,101478.69
2023-05-21T00:44:55.070Z,101483.53
2023-05-21T00:47:21.684Z,101486.19
2023-05-21T00:49:48.713Z,101484.53
2023-05-21T00:52:15.411Z,101481.53
2023-05-21T00:54:41.997Z,101482.69
2023-05-21T00:57:10.174Z,101477.47
2023-05-21T00:59:36.941Z,101478.31
2023-05-21T01:02:03.681Z,101481.47
2023-05-21T01:04:30.410Z,101476.47
2023-05-21T01:06:56.922Z,101473.94
2023-05-21T01:09:23.528Z,101472.59
2023-05-21T01:11:51.188Z,101480.75
2023-05-21T01:14:20.524Z,101481.25
2023-05-21T01:16:50.058Z,101477.22
2023-05-21T01:19:18.731Z,101478.22
2023-05-21T01:21:46.608Z,101476.69
2023-05-21T01:24:14.766Z,101470.88
2023-05-21T01:26:41.386Z,101475.03
2023-05-21T01:29:08.247Z,101475.53
2023-05-21T01:31:40.609Z,101465.00
2023-05-21T01:34:11.074Z,101475.16
2023-05-21T01:36:41.014Z,101469.47
2023-05-21T01:39:14.520Z,101477.47
2023-05-21T01:41:43.636Z,101473.81
2023-05-21T01:44:11.879Z,101468.78
2023-05-21T01:46:38.774Z,101474.44
2023-05-21T01:49:06.089Z,101472.75
2023-05-21T01:51:33.284Z,101472.25
2023-05-21T01:53:59.836Z,101475.91
2023-05-21T01:56:26.346Z,101470.88
2023-05-21T01:58:55.798Z,101471.72
2023-05-21T02:01:22.396Z,101479.06
2023-05-21T02:03:49.033Z,101473.41
2023-05-21T02:06:15.603Z,101472.41
2023-05-21T02:08:42.132Z,101465.38
2023-05-21T02:11:08.671Z,101465.00
2023-05-21T02:13:35.195Z,101461.78
2023-05-21T02:16:03.082Z,101462.78
2023-05-21T02:18:29.601Z,101462.78
2023-05-21T02:20:56.156Z,101462.63
2023-05-21T02:23:22.688Z,101454.09
2023-05-21T02:25:49.301Z,101458.97
2023-05-21T02:28:15.832Z,101453.94
2023-05-21T02:30:42.329Z,101454.41
2023-05-21T02:33:10.304Z,101449.22
2023-05-21T02:35:37.088Z,101452.09
2023-05-21T02:38:03.828Z,101452.19
2023-05-21T02:40:30.396Z,101450.97
2023-05-21T02:42:56.940Z,101454.78
2023-05-21T02:45:23.575Z,101442.47
2023-05-21T02:47:50.157Z,101449.91
2023-05-21T02:50:18.057Z,101446.25
2023-05-21T02:52:44.587Z,101446.94
2023-05-21T02:55:11.200Z,101452.03
2023-05-21T02:57:37.736Z,101448.38
2023-05-21T03:00:05.346Z,101439.59
2023-05-21T03:02:32.013Z,101435.13
2023-05-21T03:04:58.590Z,101423.78
2023-05-21T03:07:26.623Z,101435.56
2023-05-21T03:09:53.182Z,101440.22
2023-05-21T03:12:19.829Z,101424.84
2023-05-21T03:14:46.437Z,101429.25
2023-05-21T03:17:13.055Z,101429.56
2023-05-21T03:19:40.721Z,101425.91
2023-05-21T03:22:07.619Z,101421.56
2023-05-21T03:24:35.544Z,101417.06
2023-05-21T03:27:02.090Z,101417.75
2023-05-21T03:29:28.893Z,101417.44
2023-05-21T03:31:55.924Z,101425.75
2023-05-21T03:34:22.581Z,101422.59
2023-05-21T03:36:49.649Z,101420.09
2023-05-21T03:39:16.297Z,101421.63
2023-05-21T03:41:44.205Z,101425.44
2023-05-21T03:44:10.747Z,101430.63
2023-05-21T03:46:37.293Z,101423.78
2023-05-21T03:49:03.861Z,101428.56
2023-05-21T03:51:30.446Z,101427.94
2023-05-21T03:53:57.725Z,101425.28
2023-05-21T03:56:24.237Z,101429.78
2023-05-21T03:58:52.151Z,101421.13
2023-05-21T04:01:18.806Z,101414.22
2023-05-21T04:03:45.521Z,101415.91
2023-05-21T04:06:12.209Z,101411.56
2023-05-21T04:08:38.772Z,101408.59
2023-05-21T04:11:05.411Z,101430.78
2023-05-21T04:13:31.969Z,101436.94
2023-05-21T04:15:59.988Z,101433.97
2023-05-21T04:18:26.727Z,101439.31
2023-05-21T04:20:53.433Z,101431.28
2023-05-21T04:23:19.973Z,101436.47
2023-05-21T04:25:46.536Z,101435.63
2023-05-21T04:28:13.059Z,101451.34
2023-05-21T04:30:39.598Z,101453.50
2023-05-21T04:33:07.582Z,101449.00
2023-05-21T04:35:34.313Z,101445.34
2023-05-21T04:38:02.971Z,101442.38
2023-05-21T04:40:30.704Z,101452.91
2023-05-21T04:42:57.259Z,101451.06
2023-05-21T04:45:23.799Z,101451.41
2023-05-21T04:47:50.394Z,101450.41
2023-05-21T04:50:18.402Z,101459.41
2023-05-21T04:52:44.943Z,101451.09
2023-05-21T04:55:11.571Z,101443.47
2023-05-21T04:57:38.081Z,101446.63
2023-05-21T05:00:05.824Z,101430.16
2023-05-21T05:02:32.378Z,101432.84
2023-05-21T05:04:58.927Z,101435.81
2023-05-21T05:07:26.777Z,101440.16
2023-05-21T05:09:53.304Z,101438.66
2023-05-21T05:12:19.825Z,101437.66
2023-05-21T05:14:46.375Z,101443.19
2023-05-21T05:17:12.914Z,101437.53
2023-05-21T05:19:39.454Z,101436.38
2023-05-21T05:22:06.062Z,101427.19
2023-05-21T05:24:33.921Z,101433.53
2023-05-21T05:27:00.616Z,101435.22
2023-05-21T05:29:27.148Z,101427.38
2023-05-21T05:31:53.708Z,101432.25
2023-05-21T05:34:20.221Z,101435.91
2023-05-21T05:36:46.751Z,101426.59
2023-05-21T05:39:13.648Z,101427.91
2023-05-21T05:41:41.539Z,101419.91
2023-05-21T05:44:10.739Z,101415.22
2023-05-21T05:46:37.836Z,101425.13
2023-05-21T05:49:04.601Z,101425.59
2023-05-21T05:51:31.166Z,101425.59
2023-05-21T05:53:57.721Z,101419.47
2023-05-21T05:56:24.267Z,101421.09
2023-05-21T05:58:52.152Z,101419.78
2023-05-21T06:01:19.013Z,101419.63
2023-05-21T06:03:45.652Z,101422.00
2023-05-21T06:06:12.447Z,101428.66
2023-05-21T06:08:39.088Z,101432.97
2023-05-21T06:11:05.715Z,101427.19
2023-05-21T06:13:32.246Z,101430.34
2023-05-21T06:16:00.148Z,101445.06
2023-05-21T06:18:26.765Z,101442.72
2023-05-21T06:20:53.335Z,101442.88
2023-05-21T06:23:19.876Z,101441.88
2023-05-21T06:25:46.602Z,101433.19
2023-05-21T06:28:13.131Z,101439.03
2023-05-21T06:30:39.674Z,101435.34
2023-05-21T06:33:07.681Z,101441.72
2023-05-21T06:35:34.370Z,101438.69
2023-05-21T06:38:00.936Z,101438.00
2023-05-21T06:40:27.597Z,101444.34
2023-05-21T06:42:54.187Z,101438.00
2023-05-21T06:45:20.819Z,101440.66
2023-05-21T06:47:47.453Z,101437.16
2023-05-21T06:50:15.537Z,101439.34
2023-05-21T06:52:42.085Z,101432.31
2023-05-21T06:55:09.323Z,101435.47
2023-05-21T06:57:38.078Z,101433.97
2023-05-21T07:00:05.365Z,101430.78
2023-05-21T07:02:31.983Z,101429.13
2023-05-21T07:04:58.596Z,101431.09
2023-05-21T07:07:26.505Z,101426.91
2023-05-21T07:09:53.055Z,101428.06
2023-05-21T07:12:19.633Z,101417.47
2023-05-21T07:14:46.145Z,101423.34
2023-05-21T07:17:12.702Z,101423.16
2023-05-21T07:19:39.221Z,101418.97
2023-05-21T07:22:05.789Z,101427.13
2023-05-21T07:24:33.737Z,101429.59
2023-05-21T07:27:01.901Z,101424.22
2023-05-21T07:29:29.903Z,101424.16
2023-05-21T07:31:56.440Z,101425.09
2023-05-21T07:34:22.963Z,101422.59
2023-05-21T07:36:49.465Z,101422.19
2023-05-21T07:39:16.044Z,101426.09
2023-05-21T07:41:43.920Z,101416.97
2023-05-21T07:44:10.471Z,101416.72
2023-05-21T07:46:37.043Z,101414.16
2023-05-21T07:49:03.555Z,101416.59
2023-05-21T07:51:30.159Z,101412.47
2023-05-21T07:53:56.695Z,101412.22
2023-05-21T07:56:23.443Z,101416.56
2023-05-21T07:58:51.271Z,101407.69
2023-05-21T08:01:17.890Z,101412.28
2023-05-21T08:03:44.704Z,101415.91
2023-05-21T08:06:11.374Z,101411.31
2023-05-21T08:08:37.907Z,101409.03
2023-05-21T08:11:04.572Z,101414.84
2023-05-21T08:13:31.108Z,101411.03
2023-05-21T08:15:59.090Z,101407.06
2023-05-21T08:18:25.694Z,101406.97
2023-05-21T08:20:52.235Z,101410.56
2023-05-21T08:23:18.854Z,101413.19
2023-05-21T08:25:45.460Z,101402.69
2023-05-21T08:28:11.994Z,101392.25
2023-05-21T08:30:38.516Z,101397.81
2023-05-21T08:33:06.460Z,101403.06
2023-05-21T08:35:33.054Z,101398.06
2023-05-21T08:37:59.618Z,101393.88
2023-05-21T08:40:26.223Z,101404.06
2023-05-21T08:42:52.868Z,101401.31
2023-05-21T08:45:21.386Z,101404.00
2023-05-21T08:47:47.986Z,101394.09
2023-05-21T08:50:17.029Z,101400.03
2023-05-21T08:52:43.599Z,101404.69
2023-05-21T08:55:10.583Z,101400.63
2023-05-21T08:57:37.275Z,101401.50
2023-05-21T09:00:05.043Z,101389.13
2023-05-21T09:02:34.596Z,101396.22
2023-05-21T09:05:01.742Z,101395.75
2023-05-21T09:07:31.231Z,101391.22
2023-05-21T09:09:58.986Z,101391.50
2023-05-21T09:12:26.073Z,101384.00
2023-05-21T09:14:53.131Z,101389.88
2023-05-21T09:17:20.459Z,101392.66
2023-05-21T09:20:07.236Z,101380.91
2023-05-21T09:22:35.583Z,101384.66
2023-05-21T09:25:04.748Z,101386.41
2023-05-21T09:27:32.409Z,101383.97
2023-05-21T09:29:59.001Z,101383.22
2023-05-21T09:32:25.551Z,101386.47
2023-05-21T09:34:52.134Z,101385.25
2023-05-21T09:37:27.067Z,101386.97
2023-05-21T09:39:55.713Z,101381.09
2023-05-21T09:42:22.319Z,101382.78
2023-05-21T09:44:48.931Z,101380.75
2023-05-21T09:47:19.991Z,101377.28
2023-05-21T09:49:46.646Z,101383.53
2023-05-21T09:52:13.284Z,101391.81
2023-05-21T09:54:40.234Z,101384.19
2023-05-21T09:57:08.203Z,101377.31
2023-05-21T09:59:39.713Z,101371.94
2023-05-21T10:02:17.720Z,101373.41
2023-05-21T10:04:48.802Z,101373.69
2023-05-21T10:07:18.287Z,101365.91
2023-05-21T10:09:46.945Z,101363.03
2023-05-21T10:12:17.882Z,101359.13
2023-05-21T10:14:50.217Z,101363.50
2023-05-21T10:17:17.351Z,101358.75
2023-05-21T10:19:46.355Z,101355.66
2023-05-21T10:22:13.891Z,101351.13
2023-05-21T10:24:41.037Z,101359.28
2023-05-21T10:27:07.585Z,101351.22
2023-05-21T10:29:37.322Z,101353.13
2023-05-21T10:32:05.437Z,101346.91
2023-05-21T10:34:32.047Z,101344.63
2023-05-21T10:37:01.504Z,101352.75
2023-05-21T10:39:29.757Z,101345.50
2023-05-21T10:42:05.496Z,101348.00
2023-05-21T10:44:44.216Z,101335.34
2023-05-21T10:47:40.399Z,101331.19
2023-05-21T10:50:26.561Z,101336.19
2023-05-21T10:53:10.655Z,101332.03
2023-05-21T10:55:51.541Z,101324.56
2023-05-21T10:58:47.537Z,101325.41
2023-05-21T11:01:17.036Z,101323.13
2023-05-21T11:03:43.859Z,101318.97
2023-05-21T11:06:10.621Z,101320.81
2023-05-21T11:08:38.458Z,101303.75
2023-05-21T11:11:05.220Z,101308.88
2023-05-21T11:13:45.582Z,101304.25
2023-05-21T11:16:17.422Z,101298.00
2023-05-21T11:19:02.917Z,101292.38
2023-05-21T11:21:31.137Z,101293.59
2023-05-21T11:24:05.953Z,101287.78
2023-05-21T11:27:00.339Z,101294.63
2023-05-21T11:29:47.033Z,101280.44
2023-05-21T11:32:15.412Z,101277.53
2023-05-21T11:34:44.222Z,101272.91
2023-05-21T11:37:33.636Z,101264.34
2023-05-21T11:40:24.307Z,101254.69
2023-05-21T11:42:52.544Z,101257.13
2023-05-21T11:45:20.487Z,101252.56
2023-05-21T11:47:48.960Z,101260.22
2023-05-21T11:50:16.720Z,101246.59
2023-05-21T11:52:44.003Z,101257.59
2023-05-21T11:55:10.803Z,101246.94
2023-05-21T11:57:41.088Z,101249.72
2023-05-21T12:00:13.825Z,101246.66
2023-05-21T12:02:45.257Z,101240.56
2023-05-21T12:05:13.329Z,101248.97
2023-05-21T12:07:40.002Z,101247.50
2023-05-21T12:10:08.696Z,101236.72
2023-05-21T12:12:50.116Z,101243.41
2023-05-21T12:15:21.559Z,101230.91
2023-05-21T12:17:49.976Z,101245.31
2023-05-21T12:20:18.723Z,101233.41
2023-05-21T12:22:45.360Z,101235.03
2023-05-21T12:25:11.906Z,101238.59
2023-05-21T12:27:39.196Z,101233.63
2023-05-21T12:30:07.286Z,101227.84
2023-05-21T12:32:34.022Z,101226.31
2023-05-21T12:35:00.608Z,101229.03
2023-05-21T12:37:30.116Z,101230.81
2023-05-21T12:39:59.389Z,101233.75
2023-05-21T12:42:26.984Z,101234.09
2023-05-21T12:44:54.243Z,101235.22
2023-05-21T12:47:23.837Z,101233.00
2023-05-21T12:49:55.283Z,101231.34
2023-05-21T12:52:22.377Z,101240.19
2023-05-21T12:54:52.292Z,101251.47
2023-05-21T12:57:20.269Z,101243.13
2023-05-21T12:59:48.367Z,101248.53
2023-05-21T13:02:25.139Z,101247.22
2023-05-21T13:04:56.325Z,101251.75
2023-05-21T13:07:23.722Z,101252.41
2023-05-21T13:09:52.003Z,101248.44
2023-05-21T13:12:18.882Z,101256.78
2023-05-21T13:14:45.424Z,101258.81
2023-05-21T13:17:12.323Z,101256.84
2023-05-21T13:19:38.900Z,101259.56
2023-05-21T13:22:05.567Z,101260.94
2023-05-21T13:24:32.067Z,101247.38
2023-05-21T13:26:59.966Z,101254.13
2023-05-21T13:29:26.495Z,101249.94
2023-05-21T13:31:53.017Z,101245.09
2023-05-21T13:34:19.574Z,101252.47
2023-05-21T13:36:46.226Z,101250.31
2023-05-21T13:39:12.760Z,101244.81
2023-05-21T13:41:39.307Z,101239.66
2023-05-21T13:44:07.230Z,101241.31
2023-05-21T13:46:33.828Z,101230.59
2023-05-21T13:49:00.378Z,101233.53
2023-05-21T13:53:57.616Z,101233.97
2023-05-21T13:56:24.159Z,101233.47
2023-05-21T13:58:50.666Z,101229.78
2023-05-21T14:01:18.647Z,101233.81
2023-05-21T14:03:45.255Z,101220.50
2023-05-21T14:06:11.820Z,101226.78
2023-05-21T14:08:38.409Z,101224.66
2023-05-21T14:11:05.161Z,101220.66
2023-05-21T14:13:31.679Z,101218.91
2023-05-21T14:15:58.284Z,101214.16
2023-05-21T14:18:26.256Z,101207.53
2023-05-21T14:20:53.571Z,101204.84
2023-05-21T14:23:20.170Z,101206.25
2023-05-21T14:25:46.710Z,101198.50
2023-05-21T14:28:13.250Z,101191.78
2023-05-21T14:30:39.797Z,101185.84
2023-05-21T14:33:06.357Z,101190.00
2023-05-21T14:35:34.429Z,101185.75
2023-05-21T14:38:01.176Z,101188.56
2023-05-21T14:40:27.743Z,101184.94
2023-05-21T14:42:54.305Z,101181.97
2023-05-21T14:45:20.860Z,101180.19
2023-05-21T14:47:47.722Z,101177.63
2023-05-21T14:50:15.886Z,101175.72
2023-05-21T14:52:43.834Z,101184.19
2023-05-21T14:55:10.782Z,101174.41
2023-05-21T14:57:37.328Z,101178.69
2023-05-21T15:00:04.947Z,101177.03
2023-05-21T15:02:31.616Z,101185.03
2023-05-21T15:04:58.210Z,101174.16
2023-05-21T15:07:24.745Z,101178.91
2023-05-21T15:09:52.658Z,101165.09
2023-05-21T15:12:19.231Z,101174.41
2023-05-21T15:14:45.861Z,101166.25
2023-05-21T15:17:12.414Z,101167.91
2023-05-21T15:19:39.061Z,101169.47
2023-05-21T15:22:05.583Z,101169.94
2023-05-21T15:24:32.116Z,101170.16
2023-05-21T15:26:59.974Z,101165.56
2023-05-21T15:29:26.501Z,101173.72
2023-05-21T15:31:53.012Z,101166.16
2023-05-21T15:34:19.630Z,101174.53
2023-05-21T15:36:46.235Z,101167.47
2023-05-21T15:39:12.762Z,101158.84
2023-05-21T15:41:40.083Z,101162.63
2023-05-21T15:44:07.955Z,101166.75
2023-05-21T15:46:34.513Z,101168.50
2023-05-21T15:49:01.098Z,101171.00
2023-05-21T15:51:27.592Z,101178.06
2023-05-21T15:53:54.115Z,101171.22
2023-05-21T15:56:20.663Z,101167.34
2023-05-21T15:58:47.218Z,101165.69
2023-05-21T16:01:15.175Z,101164.13
2023-05-21T16:03:41.790Z,101163.31
2023-05-21T16:06:08.335Z,101161.66
2023-05-21T16:08:34.868Z,101159.19
2023-05-21T16:11:01.455Z,101167.81
2023-05-21T16:13:27.990Z,101168.97
2023-05-21T16:15:54.523Z,101183.72
2023-05-21T16:18:22.410Z,101169.69
2023-05-21T16:20:48.922Z,101172.19
2023-05-21T16:23:15.480Z,101163.31
2023-05-21T16:25:42.065Z,101162.38
2023-05-21T16:28:08.574Z,101160.59
2023-05-21T16:30:35.108Z,101154.47
2023-05-21T16:33:01.793Z,101167.00
2023-05-21T16:35:29.719Z,101165.94
2023-05-21T16:37:56.305Z,101167.09
2023-05-21T16:40:22.848Z,101168.75
2023-05-21T16:42:49.530Z,101176.78
2023-05-21T16:45:16.117Z,101166.16
2023-05-21T16:47:42.647Z,101175.81
2023-05-21T16:50:09.926Z,101176.66
2023-05-21T16:52:37.780Z,101174.91
2023-05-21T16:55:05.067Z,101168.97
2023-05-21T16:57:31.579Z,101169.69
2023-05-21T16:59:58.200Z,101168.28
2023-05-21T17:02:24.823Z,101162.25
2023-05-21T17:04:51.428Z,101167.09
2023-05-21T17:07:17.982Z,101166.53
2023-05-21T17:09:45.848Z,101164.88
2023-05-21T17:12:12.405Z,101164.75
2023-05-21T17:14:39.679Z,101163.44
2023-05-21T17:17:06.310Z,101160.13
2023-05-21T17:19:32.884Z,101158.16
2023-05-21T17:21:59.467Z,101167.69
2023-05-21T17:24:26.010Z,101165.81
2023-05-21T17:26:53.975Z,101158.25
2023-05-21T17:29:20.495Z,101171.38
2023-05-21T17:31:47.104Z,101170.75
2023-05-21T17:34:13.697Z,101172.28
2023-05-21T17:36:40.272Z,101169.91
2023-05-21T17:39:06.785Z,101172.53
2023-05-21T17:41:33.322Z,101163.06
2023-05-21T17:44:01.251Z,101163.97
2023-05-21T17:46:27.798Z,101164.44
2023-05-21T17:48:54.328Z,101173.56
2023-05-21T17:51:20.915Z,101177.09
2023-05-21T17:53:47.434Z,101178.03
2023-05-21T17:56:14.011Z,101181.13
2023-05-21T17:58:40.551Z,101179.00
2023-05-21T18:01:08.509Z,101183.47
2023-05-21T18:03:35.131Z,101180.91
2023-05-21T18:06:01.707Z,101182.31
2023-05-21T18:08:28.323Z,101183.97
2023-05-21T18:10:54.874Z,101174.53
2023-05-21T18:13:21.382Z,101180.06
2023-05-21T18:15:47.958Z,101181.72
2023-05-21T18:18:16.082Z,101182.69
2023-05-21T18:20:43.742Z,101175.34
2023-05-21T18:23:10.288Z,101181.97
2023-05-21T18:25:36.904Z,101185.53
2023-05-21T18:28:03.498Z,101189.50
2023-05-21T18:30:30.031Z,101185.50
2023-05-21T18:32:56.652Z,101189.94
2023-05-21T18:35:24.592Z,101187.13
2023-05-21T18:37:51.172Z,101186.84
2023-05-21T18:40:17.898Z,101184.69
2023-05-21T18:42:44.431Z,101184.78
2023-05-21T18:45:11.562Z,101182.16
2023-05-21T18:47:38.317Z,101188.28
2023-05-21T18:50:06.079Z,101175.66
2023-05-21T18:52:33.938Z,101180.09
2023-05-21T18:55:00.455Z,101180.41
2023-05-21T18:57:26.982Z,101183.47
2023-05-21T18:59:53.514Z,101178.94
2023-05-21T19:02:20.210Z,101168.84
2023-05-21T19:04:46.843Z,101168.72
2023-05-21T19:07:13.365Z,101173.34
2023-05-21T19:09:41.331Z,101169.69
2023-05-21T19:12:08.274Z,101167.03
2023-05-21T19:14:34.867Z,101172.75
2023-05-21T19:17:01.440Z,101181.81
2023-05-21T19:19:28.088Z,101180.19
2023-05-21T19:21:54.795Z,101182.75
2023-05-21T19:24:21.352Z,101182.44
2023-05-21T19:26:49.206Z,101177.69
2023-05-21T19:29:15.736Z,101180.88
2023-05-21T19:31:42.271Z,101185.53
2023-05-21T19:34:08.774Z,101188.50
2023-05-21T19:36:44.688Z,101186.91
2023-05-21T19:39:19.155Z,101190.28
2023-05-21T19:41:45.982Z,101188.66
2023-05-21T19:44:13.862Z,101187.06
2023-05-21T19:46:40.467Z,101186.28
2023-05-21T19:49:07.006Z,101193.16
2023-05-21T19:51:33.553Z,101184.28
2023-05-21T19:54:00.131Z,101189.50
2023-05-21T19:56:26.875Z,101193.09
2023-05-21T19:58:53.400Z,101194.94
2023-05-21T20:01:21.425Z,101198.53
2023-05-21T20:03:48.065Z,101194.81
2023-05-21T20:06:14.726Z,101191.94
2023-05-21T20:08:41.261Z,101188.00
2023-05-21T20:11:07.834Z,101188.63
2023-05-21T20:13:34.400Z,101186.59
2023-05-21T20:16:00.927Z,101186.41
2023-05-21T20:18:28.817Z,101189.56
2023-05-21T20:20:55.352Z,101184.56
2023-05-21T20:23:21.883Z,101186.47
2023-05-21T20:25:48.490Z,101184.41
2023-05-21T20:28:15.017Z,101186.31
2023-05-21T20:30:52.923Z,101182.59
2023-05-21T20:33:19.530Z,101187.34
2023-05-21T20:35:47.524Z,101192.56
2023-05-21T20:38:14.061Z,101189.88
2023-05-21T20:40:40.563Z,101190.50
2023-05-21T20:43:07.082Z,101189.84
2023-05-21T20:45:33.714Z,101189.47
2023-05-21T20:48:00.507Z,101183.84
2023-05-21T20:50:27.104Z,101196.72
2023-05-21T20:52:55.019Z,101193.00
2023-05-21T20:55:21.546Z,101193.19
2023-05-21T20:57:48.080Z,101183.44
2023-05-21T21:00:15.101Z,101187.59
2023-05-21T21:02:41.727Z,101191.16
2023-05-21T21:05:08.928Z,101186.19
2023-05-21T21:07:35.853Z,101197.16
2023-05-21T21:10:04.787Z,101188.47
2023-05-21T21:12:31.368Z,101183.69
2023-05-21T21:14:57.897Z,101191.38
2023-05-21T21:17:24.460Z,101190.94
2023-05-21T21:19:51.074Z,101191.78
2023-05-21T21:22:17.753Z,101193.06
2023-05-21T21:24:44.284Z,101187.03
2023-05-21T21:27:12.153Z,101191.59
2023-05-21T21:29:38.787Z,101192.84
2023-05-21T21:32:06.223Z,101199.00
2023-05-21T21:34:32.833Z,101199.59
2023-05-21T21:36:59.393Z,101199.59
2023-05-21T21:39:25.911Z,101199.81
2023-05-21T21:41:52.467Z,101202.94
2023-05-21T21:44:20.426Z,101200.66
2023-05-21T21:46:47.094Z,101204.97
2023-05-21T21:49:13.715Z,101204.13
2023-05-21T21:51:40.513Z,101203.94
2023-05-21T21:54:07.028Z,101202.47
2023-05-21T21:56:33.607Z,101195.84
2023-05-21T21:59:00.162Z,101204.28
2023-05-21T22:01:28.704Z,101206.16
2023-05-21T22:03:55.275Z,101207.16
2023-05-21T22:06:21.811Z,101212.94
2023-05-21T22:08:48.358Z,101207.94
2023-05-21T22:11:15.027Z,101210.19
2023-05-21T22:13:41.634Z,101201.88
2023-05-21T22:16:08.288Z,101207.88
2023-05-21T22:18:40.184Z,101208.06
2023-05-21T22:21:07.894Z,101195.72
2023-05-21T22:23:34.453Z,101194.53
2023-05-21T22:26:01.000Z,101188.50
2023-05-21T22:28:27.526Z,101193.66
2023-05-21T22:30:54.101Z,101189.75
2023-05-21T22:33:20.720Z,101190.03
2023-05-21T22:35:48.614Z,101195.41
2023-05-21T22:38:15.189Z,101195.00
2023-05-21T22:40:41.745Z,101201.53
2023-05-21T22:43:08.366Z,101194.00
2023-05-21T22:45:34.885Z,101195.06
2023-05-21T22:48:01.457Z,101199.44
2023-05-21T22:50:28.002Z,101194.16
2023-05-21T22:52:55.985Z,101192.69
2023-05-21T22:55:22.556Z,101187.47
2023-05-21T22:57:49.094Z,101189.31
2023-05-21T23:00:16.242Z,101195.06
2023-05-21T23:02:42.885Z,101192.28
2023-05-21T23:05:09.717Z,101195.97
2023-05-21T23:07:36.267Z,101193.22
2023-05-21T23:10:04.968Z,101185.38
2023-05-21T23:12:31.521Z,101194.41
2023-05-21T23:14:58.116Z,101192.38
2023-05-21T23:17:24.754Z,101196.34
2023-05-21T23:19:51.341Z,101185.50
2023-05-21T23:22:18.073Z,101180.09
2023-05-21T23:24:44.595Z,101187.41
2023-05-21T23:27:12.572Z,101189.84
2023-05-21T23:29:39.118Z,101189.38
2023-05-21T23:32:06.097Z,101192.06
2023-05-21T23:34:32.846Z,101181.56
2023-05-21T23:37:00.529Z,101183.19
2023-05-21T23:39:27.627Z,101178.59
2023-05-21T23:41:54.699Z,101182.31
2023-05-21T23:44:22.624Z,101175.03
2023-05-21T23:46:49.153Z,101175.59
2023-05-21T23:49:15.834Z,101174.75
2023-05-21T23:51:42.405Z,101178.03
2023-05-21T23:54:08.957Z,101187.41
2023-05-21T23:56:35.543Z,101184.16
2023-05-21T23:59:02.116Z,101179.94
